sensor_id;sensor_type;location;lat;lon;timestamp;temperature;humidity
78325;DHT22;67584;51.400;6.692;2024-01-06T00:01:38;5.90;92.20
78325;DHT22;67584;51.400;6.692;2024-01-06T00:04:06;6.00;92.20
78325;DHT22;67584;51.400;6.692;2024-01-06T00:06:32;5.90;92.20
78325;DHT22;67584;51.400;6.692;2024-01-06T00:08:58;5.90;92.20
78325;DHT22;67584;51.400;6.692;2024-01-06T00:11:24;5.90;92.20
78325;DHT22;67584;51.400;6.692;2024-01-06T00:13:50;6.00;92.20
78325;DHT22;67584;51.400;6.692;2024-01-06T00:16:19;5.90;92.20
78325;DHT22;67584;51.400;6.692;2024-01-06T00:18:46;6.00;92.20
78325;DHT22;67584;51.400;6.692;2024-01-06T00:21:11;5.70;92.20
78325;DHT22;67584;51.400;6.692;2024-01-06T00:23:37;6.10;92.20
78325;DHT22;67584;51.400;6.692;2024-01-06T00:26:04;5.90;92.20
78325;DHT22;67584;51.400;6.692;2024-01-06T00:28:29;6.00;92.20
78325;DHT22;67584;51.400;6.692;2024-01-06T00:30:55;6.00;92.20
78325;DHT22;67584;51.400;6.692;2024-01-06T00:33:21;6.00;92.20
78325;DHT22;67584;51.400;6.692;2024-01-06T00:35:47;6.00;92.20
78325;DHT22;67584;51.400;6.692;2024-01-06T00:38:12;6.10;92.20
78325;DHT22;67584;51.400;6.692;2024-01-06T00:40:38;6.00;92.20
78325;DHT22;67584;51.400;6.692;2024-01-06T00:43:04;5.90;92.20
78325;DHT22;67584;51.400;6.692;2024-01-06T00:45:30;6.00;92.20
78325;DHT22;67584;51.400;6.692;2024-01-06T00:47:56;6.10;92.20
78325;DHT22;67584;51.400;6.692;2024-01-06T00:50:22;6.00;92.20
78325;DHT22;67584;51.400;6.692;2024-01-06T00:52:48;6.00;92.20
78325;DHT22;67584;51.400;6.692;2024-01-06T00:55:18;6.20;92.20
78325;DHT22;67584;51.400;6.692;2024-01-06T00:57:44;6.00;92.20
78325;DHT22;67584;51.400;6.692;2024-01-06T01:00:10;6.10;92.20
78325;DHT22;67584;51.400;6.692;2024-01-06T01:02:36;6.20;92.20
78325;DHT22;67584;51.400;6.692;2024-01-06T01:05:02;6.20;92.20
78325;DHT22;67584;51.400;6.692;2024-01-06T01:07:28;6.30;92.20
78325;DHT22;67584;51.400;6.692;2024-01-06T01:09:53;6.40;92.20
78325;DHT22;67584;51.400;6.692;2024-01-06T01:12:19;6.30;92.20
78325;DHT22;67584;51.400;6.692;2024-01-06T01:14:45;6.10;92.20
78325;DHT22;67584;51.400;6.692;2024-01-06T01:17:10;6.30;92.20
78325;DHT22;67584;51.400;6.692;2024-01-06T01:19:36;6.10;92.20
78325;DHT22;67584;51.400;6.692;2024-01-06T01:22:01;6.40;92.20
78325;DHT22;67584;51.400;6.692;2024-01-06T01:24:27;6.30;92.20
78325;DHT22;67584;51.400;6.692;2024-01-06T01:26:53;6.30;92.20
78325;DHT22;67584;51.400;6.692;2024-01-06T01:29:18;6.30;92.20
78325;DHT22;67584;51.400;6.692;2024-01-06T01:31:46;6.20;92.20
78325;DHT22;67584;51.400;6.692;2024-01-06T01:34:12;6.10;92.20
78325;DHT22;67584;51.400;6.692;2024-01-06T01:36:38;6.30;92.20
78325;DHT22;67584;51.400;6.692;2024-01-06T01:39:03;6.30;92.20
78325;DHT22;67584;51.400;6.692;2024-01-06T01:41:29;6.10;92.20
78325;DHT22;67584;51.400;6.692;2024-01-06T01:43:55;6.20;92.20
78325;DHT22;67584;51.400;6.692;2024-01-06T01:46:27;6.30;92.20
78325;DHT22;67584;51.400;6.692;2024-01-06T01:48:57;6.20;92.20
78325;DHT22;67584;51.400;6.692;2024-01-06T01:51:26;6.30;92.20
78325;DHT22;67584;51.400;6.692;2024-01-06T01:53:52;6.10;92.20
78325;DHT22;67584;51.400;6.692;2024-01-06T01:56:19;6.20;92.20
78325;DHT22;67584;51.400;6.692;2024-01-06T01:58:45;6.30;92.20
78325;DHT22;67584;51.400;6.692;2024-01-06T02:01:10;6.20;92.20
78325;DHT22;67584;51.400;6.692;2024-01-06T02:03:37;6.20;92.20
78325;DHT22;67584;51.400;6.692;2024-01-06T02:06:03;6.20;92.20
78325;DHT22;67584;51.400;6.692;2024-01-06T02:08:29;6.30;92.20
78325;DHT22;67584;51.400;6.692;2024-01-06T02:10:55;5.90;92.20
78325;DHT22;67584;51.400;6.692;2024-01-06T02:13:23;6.10;92.20
78325;DHT22;67584;51.400;6.692;2024-01-06T02:15:49;6.00;92.20
78325;DHT22;67584;51.400;6.692;2024-01-06T02:18:16;6.20;92.20
78325;DHT22;67584;51.400;6.692;2024-01-06T02:20:43;6.10;92.20
78325;DHT22;67584;51.400;6.692;2024-01-06T02:23:09;6.20;92.20
78325;DHT22;67584;51.400;6.692;2024-01-06T02:25:35;6.20;92.20
78325;DHT22;67584;51.400;6.692;2024-01-06T02:28:01;6.30;92.20
78325;DHT22;67584;51.400;6.692;2024-01-06T02:30:27;6.10;92.20
78325;DHT22;67584;51.400;6.692;2024-01-06T02:32:52;6.10;92.20
78325;DHT22;67584;51.400;6.692;2024-01-06T02:35:18;5.90;92.20
78325;DHT22;67584;51.400;6.692;2024-01-06T02:37:44;6.10;92.20
78325;DHT22;67584;51.400;6.692;2024-01-06T02:40:10;6.10;92.20
78325;DHT22;67584;51.400;6.692;2024-01-06T02:42:36;5.80;92.20
78325;DHT22;67584;51.400;6.692;2024-01-06T02:45:02;5.90;92.20
78325;DHT22;67584;51.400;6.692;2024-01-06T02:47:27;6.00;92.20
78325;DHT22;67584;51.400;6.692;2024-01-06T02:49:53;6.10;92.20
78325;DHT22;67584;51.400;6.692;2024-01-06T02:52:19;6.20;92.20
78325;DHT22;67584;51.400;6.692;2024-01-06T02:54:45;6.00;92.20
78325;DHT22;67584;51.400;6.692;2024-01-06T02:57:11;6.10;92.20
78325;DHT22;67584;51.400;6.692;2024-01-06T02:59:39;6.10;92.20
78325;DHT22;67584;51.400;6.692;2024-01-06T03:02:05;6.10;92.20
78325;DHT22;67584;51.400;6.692;2024-01-06T03:04:30;5.70;92.20
78325;DHT22;67584;51.400;6.692;2024-01-06T03:06:56;5.60;92.20
78325;DHT22;67584;51.400;6.692;2024-01-06T03:09:21;5.30;92.20
78325;DHT22;67584;51.400;6.692;2024-01-06T03:11:47;5.30;92.20
78325;DHT22;67584;51.400;6.692;2024-01-06T03:14:13;5.40;92.20
78325;DHT22;67584;51.400;6.692;2024-01-06T03:16:39;5.30;92.20
78325;DHT22;67584;51.400;6.692;2024-01-06T03:19:05;5.20;92.20
78325;DHT22;67584;51.400;6.692;2024-01-06T03:21:30;5.10;92.20
78325;DHT22;67584;51.400;6.692;2024-01-06T03:23:56;5.10;92.20
78325;DHT22;67584;51.400;6.692;2024-01-06T03:26:21;5.00;92.20
78325;DHT22;67584;51.400;6.692;2024-01-06T03:28:50;5.10;92.20
78325;DHT22;67584;51.400;6.692;2024-01-06T03:31:16;4.90;92.20
78325;DHT22;67584;51.400;6.692;2024-01-06T03:33:43;5.00;92.20
78325;DHT22;67584;51.400;6.692;2024-01-06T03:36:12;4.80;92.20
78325;DHT22;67584;51.400;6.692;2024-01-06T03:38:37;5.00;92.20
78325;DHT22;67584;51.400;6.692;2024-01-06T03:41:03;5.00;92.20
78325;DHT22;67584;51.400;6.692;2024-01-06T03:43:29;5.00;92.20
78325;DHT22;67584;51.400;6.692;2024-01-06T03:45:54;4.80;92.20
78325;DHT22;67584;51.400;6.692;2024-01-06T03:48:22;4.90;92.20
78325;DHT22;67584;51.400;6.692;2024-01-06T03:50:47;4.80;92.20
78325;DHT22;67584;51.400;6.692;2024-01-06T03:53:13;4.80;92.20
78325;DHT22;67584;51.400;6.692;2024-01-06T03:55:39;5.00;92.20
78325;DHT22;67584;51.400;6.692;2024-01-06T03:58:04;4.50;92.20
78325;DHT22;67584;51.400;6.692;2024-01-06T04:00:30;4.60;92.20
78325;DHT22;67584;51.400;6.692;2024-01-06T04:02:55;4.80;92.20
78325;DHT22;67584;51.400;6.692;2024-01-06T04:05:21;4.80;92.20
78325;DHT22;67584;51.400;6.692;2024-01-06T04:07:47;4.70;92.20
78325;DHT22;67584;51.400;6.692;2024-01-06T04:10:12;4.60;92.20
78325;DHT22;67584;51.400;6.692;2024-01-06T04:12:38;4.60;92.20
78325;DHT22;67584;51.400;6.692;2024-01-06T04:15:04;4.80;92.20
78325;DHT22;67584;51.400;6.692;2024-01-06T04:17:30;4.90;92.20
78325;DHT22;67584;51.400;6.692;2024-01-06T04:19:55;4.80;92.20
78325;DHT22;67584;51.400;6.692;2024-01-06T04:22:22;4.70;92.20
78325;DHT22;67584;51.400;6.692;2024-01-06T04:24:47;4.70;92.20
78325;DHT22;67584;51.400;6.692;2024-01-06T04:27:13;4.70;92.20
78325;DHT22;67584;51.400;6.692;2024-01-06T04:29:38;4.80;92.20
78325;DHT22;67584;51.400;6.692;2024-01-06T04:32:05;4.60;92.20
78325;DHT22;67584;51.400;6.692;2024-01-06T04:34:33;4.50;92.20
78325;DHT22;67584;51.400;6.692;2024-01-06T04:36:58;4.60;92.20
78325;DHT22;67584;51.400;6.692;2024-01-06T04:39:24;4.70;92.20
78325;DHT22;67584;51.400;6.692;2024-01-06T04:41:50;4.50;92.20
78325;DHT22;67584;51.400;6.692;2024-01-06T04:44:18;4.50;92.20
78325;DHT22;67584;51.400;6.692;2024-01-06T04:46:43;4.50;92.20
78325;DHT22;67584;51.400;6.692;2024-01-06T04:49:10;4.70;92.20
78325;DHT22;67584;51.400;6.692;2024-01-06T04:51:35;4.70;92.20
78325;DHT22;67584;51.400;6.692;2024-01-06T04:54:01;4.40;92.20
78325;DHT22;67584;51.400;6.692;2024-01-06T04:56:27;4.40;92.20
78325;DHT22;67584;51.400;6.692;2024-01-06T04:58:52;4.30;92.20
78325;DHT22;67584;51.400;6.692;2024-01-06T05:01:18;4.40;92.20
78325;DHT22;67584;51.400;6.692;2024-01-06T05:03:44;4.40;92.20
78325;DHT22;67584;51.400;6.692;2024-01-06T05:06:09;4.50;92.20
78325;DHT22;67584;51.400;6.692;2024-01-06T05:08:35;4.50;92.20
78325;DHT22;67584;51.400;6.692;2024-01-06T05:11:04;4.50;92.20
78325;DHT22;67584;51.400;6.692;2024-01-06T05:13:30;4.40;92.20
78325;DHT22;67584;51.400;6.692;2024-01-06T05:15:56;4.40;92.20
78325;DHT22;67584;51.400;6.692;2024-01-06T05:18:21;4.40;92.20
78325;DHT22;67584;51.400;6.692;2024-01-06T05:20:47;4.30;92.20
78325;DHT22;67584;51.400;6.692;2024-01-06T05:23:13;4.20;92.20
78325;DHT22;67584;51.400;6.692;2024-01-06T05:25:39;4.50;92.20
78325;DHT22;67584;51.400;6.692;2024-01-06T05:28:04;4.30;92.20
78325;DHT22;67584;51.400;6.692;2024-01-06T05:30:30;4.40;92.20
78325;DHT22;67584;51.400;6.692;2024-01-06T05:32:56;4.50;92.20
78325;DHT22;67584;51.400;6.692;2024-01-06T05:35:21;4.70;92.20
78325;DHT22;67584;51.400;6.692;2024-01-06T05:37:47;4.50;92.20
78325;DHT22;67584;51.400;6.692;2024-01-06T05:40:13;4.40;92.20
78325;DHT22;67584;51.400;6.692;2024-01-06T05:42:40;4.40;92.20
78325;DHT22;67584;51.400;6.692;2024-01-06T05:45:05;4.50;92.20
78325;DHT22;67584;51.400;6.692;2024-01-06T05:47:31;4.50;92.20
78325;DHT22;67584;51.400;6.692;2024-01-06T05:49:57;4.40;92.20
78325;DHT22;67584;51.400;6.692;2024-01-06T05:52:23;4.40;92.20
78325;DHT22;67584;51.400;6.692;2024-01-06T05:54:49;4.40;92.20
78325;DHT22;67584;51.400;6.692;2024-01-06T05:57:14;4.40;92.20
78325;DHT22;67584;51.400;6.692;2024-01-06T05:59:40;4.60;92.20
78325;DHT22;67584;51.400;6.692;2024-01-06T06:02:06;4.40;92.20
78325;DHT22;67584;51.400;6.692;2024-01-06T06:04:32;4.40;92.20
78325;DHT22;67584;51.400;6.692;2024-01-06T06:06:57;4.50;92.20
78325;DHT22;67584;51.400;6.692;2024-01-06T06:09:23;4.60;92.20
78325;DHT22;67584;51.400;6.692;2024-01-06T06:11:49;4.50;92.20
78325;DHT22;67584;51.400;6.692;2024-01-06T06:14:14;4.30;92.20
78325;DHT22;67584;51.400;6.692;2024-01-06T06:16:40;4.50;92.20
78325;DHT22;67584;51.400;6.692;2024-01-06T06:19:05;4.40;92.20
78325;DHT22;67584;51.400;6.692;2024-01-06T06:21:32;4.30;92.20
78325;DHT22;67584;51.400;6.692;2024-01-06T06:23:57;4.20;92.20
78325;DHT22;67584;51.400;6.692;2024-01-06T06:26:23;4.40;92.20
78325;DHT22;67584;51.400;6.692;2024-01-06T06:28:49;4.40;92.20
78325;DHT22;67584;51.400;6.692;2024-01-06T06:31:14;4.30;92.20
78325;DHT22;67584;51.400;6.692;2024-01-06T06:33:40;4.30;92.20
78325;DHT22;67584;51.400;6.692;2024-01-06T06:36:06;4.20;92.20
78325;DHT22;67584;51.400;6.692;2024-01-06T06:38:31;4.30;92.20
78325;DHT22;67584;51.400;6.692;2024-01-06T06:40:57;4.40;92.20
78325;DHT22;67584;51.400;6.692;2024-01-06T06:43:23;4.20;92.20
78325;DHT22;67584;51.400;6.692;2024-01-06T06:45:49;4.20;92.20
78325;DHT22;67584;51.400;6.692;2024-01-06T06:48:14;4.20;92.20
78325;DHT22;67584;51.400;6.692;2024-01-06T06:50:40;4.10;92.20
78325;DHT22;67584;51.400;6.692;2024-01-06T06:53:08;4.20;92.20
78325;DHT22;67584;51.400;6.692;2024-01-06T06:55:33;4.20;92.20
78325;DHT22;67584;51.400;6.692;2024-01-06T06:57:59;4.20;92.20
78325;DHT22;67584;51.400;6.692;2024-01-06T07:00:25;4.10;92.20
78325;DHT22;67584;51.400;6.692;2024-01-06T07:02:50;4.30;92.20
78325;DHT22;67584;51.400;6.692;2024-01-06T07:05:16;4.00;92.20
78325;DHT22;67584;51.400;6.692;2024-01-06T07:07:42;4.20;92.20
78325;DHT22;67584;51.400;6.692;2024-01-06T07:10:12;4.00;92.20
78325;DHT22;67584;51.400;6.692;2024-01-06T07:12:38;4.00;92.20
78325;DHT22;67584;51.400;6.692;2024-01-06T07:15:04;4.20;92.20
78325;DHT22;67584;51.400;6.692;2024-01-06T07:17:30;4.20;92.20
78325;DHT22;67584;51.400;6.692;2024-01-06T07:19:56;4.10;92.20
78325;DHT22;67584;51.400;6.692;2024-01-06T07:22:21;4.20;92.20
78325;DHT22;67584;51.400;6.692;2024-01-06T07:24:47;4.10;92.20
78325;DHT22;67584;51.400;6.692;2024-01-06T07:27:13;4.20;92.20
78325;DHT22;67584;51.400;6.692;2024-01-06T07:29:39;4.30;92.20
78325;DHT22;67584;51.400;6.692;2024-01-06T07:32:05;4.10;92.20
78325;DHT22;67584;51.400;6.692;2024-01-06T07:34:32;4.30;92.20
78325;DHT22;67584;51.400;6.692;2024-01-06T07:36:57;4.10;92.20
78325;DHT22;67584;51.400;6.692;2024-01-06T07:39:23;4.00;92.20
78325;DHT22;67584;51.400;6.692;2024-01-06T07:41:50;4.00;92.20
78325;DHT22;67584;51.400;6.692;2024-01-06T07:44:16;4.20;92.20
78325;DHT22;67584;51.400;6.692;2024-01-06T07:46:48;4.00;92.20
78325;DHT22;67584;51.400;6.692;2024-01-06T07:49:14;4.20;92.20
78325;DHT22;67584;51.400;6.692;2024-01-06T07:51:41;4.10;92.20
78325;DHT22;67584;51.400;6.692;2024-01-06T07:54:07;4.00;92.20
78325;DHT22;67584;51.400;6.692;2024-01-06T07:56:34;4.00;92.20
78325;DHT22;67584;51.400;6.692;2024-01-06T07:59:01;3.80;92.20
78325;DHT22;67584;51.400;6.692;2024-01-06T08:01:27;3.80;92.20
78325;DHT22;67584;51.400;6.692;2024-01-06T08:03:52;4.20;92.20
78325;DHT22;67584;51.400;6.692;2024-01-06T08:06:18;4.00;92.20
78325;DHT22;67584;51.400;6.692;2024-01-06T08:08:44;4.10;92.20
78325;DHT22;67584;51.400;6.692;2024-01-06T08:11:11;4.00;92.20
78325;DHT22;67584;51.400;6.692;2024-01-06T08:13:37;4.20;92.20
78325;DHT22;67584;51.400;6.692;2024-01-06T08:16:03;4.00;92.20
78325;DHT22;67584;51.400;6.692;2024-01-06T08:18:29;4.10;92.20
78325;DHT22;67584;51.400;6.692;2024-01-06T08:20:55;4.10;92.20
78325;DHT22;67584;51.400;6.692;2024-01-06T08:23:20;4.10;92.20
78325;DHT22;67584;51.400;6.692;2024-01-06T08:25:46;4.10;92.20
78325;DHT22;67584;51.400;6.692;2024-01-06T08:28:12;4.20;92.20
78325;DHT22;67584;51.400;6.692;2024-01-06T08:30:40;3.90;92.20
78325;DHT22;67584;51.400;6.692;2024-01-06T08:33:06;4.00;92.20
78325;DHT22;67584;51.400;6.692;2024-01-06T08:35:31;4.10;92.20
78325;DHT22;67584;51.400;6.692;2024-01-06T08:37:57;3.90;92.20
78325;DHT22;67584;51.400;6.692;2024-01-06T08:40:23;4.00;92.20
78325;DHT22;67584;51.400;6.692;2024-01-06T08:42:49;4.00;92.20
78325;DHT22;67584;51.400;6.692;2024-01-06T08:45:15;4.20;92.20
78325;DHT22;67584;51.400;6.692;2024-01-06T08:47:40;4.00;92.20
78325;DHT22;67584;51.400;6.692;2024-01-06T08:50:10;3.90;92.20
78325;DHT22;67584;51.400;6.692;2024-01-06T08:52:35;4.20;92.20
78325;DHT22;67584;51.400;6.692;2024-01-06T08:55:04;4.00;92.20
78325;DHT22;67584;51.400;6.692;2024-01-06T08:57:30;3.90;92.20
78325;DHT22;67584;51.400;6.692;2024-01-06T08:59:56;3.90;92.20
78325;DHT22;67584;51.400;6.692;2024-01-06T09:02:22;4.00;92.20
78325;DHT22;67584;51.400;6.692;2024-01-06T09:04:47;4.00;92.20
78325;DHT22;67584;51.400;6.692;2024-01-06T09:07:16;4.00;92.20
78325;DHT22;67584;51.400;6.692;2024-01-06T09:09:43;4.00;92.20
78325;DHT22;67584;51.400;6.692;2024-01-06T09:12:09;4.00;92.20
78325;DHT22;67584;51.400;6.692;2024-01-06T09:14:35;3.80;92.20
78325;DHT22;67584;51.400;6.692;2024-01-06T09:17:01;3.70;92.20
78325;DHT22;67584;51.400;6.692;2024-01-06T09:19:30;4.00;92.20
78325;DHT22;67584;51.400;6.692;2024-01-06T09:21:56;4.00;92.20
78325;DHT22;67584;51.400;6.692;2024-01-06T09:24:22;4.00;92.20
78325;DHT22;67584;51.400;6.692;2024-01-06T09:26:48;4.10;92.20
78325;DHT22;67584;51.400;6.692;2024-01-06T09:29:16;3.90;92.20
78325;DHT22;67584;51.400;6.692;2024-01-06T09:31:42;3.70;92.20
78325;DHT22;67584;51.400;6.692;2024-01-06T09:34:12;3.70;92.20
78325;DHT22;67584;51.400;6.692;2024-01-06T09:36:38;3.90;92.20
78325;DHT22;67584;51.400;6.692;2024-01-06T09:39:04;3.80;92.20
78325;DHT22;67584;51.400;6.692;2024-01-06T09:41:31;3.90;92.20
78325;DHT22;67584;51.400;6.692;2024-01-06T09:43:56;3.80;92.20
78325;DHT22;67584;51.400;6.692;2024-01-06T09:46:26;3.70;92.20
78325;DHT22;67584;51.400;6.692;2024-01-06T09:48:54;3.90;92.20
78325;DHT22;67584;51.400;6.692;2024-01-06T09:51:21;3.70;92.20
78325;DHT22;67584;51.400;6.692;2024-01-06T09:54:01;3.70;92.20
78325;DHT22;67584;51.400;6.692;2024-01-06T09:56:28;3.70;92.20
78325;DHT22;67584;51.400;6.692;2024-01-06T09:58:54;3.70;92.20
78325;DHT22;67584;51.400;6.692;2024-01-06T10:01:21;3.50;92.20
78325;DHT22;67584;51.400;6.692;2024-01-06T10:03:47;3.50;92.20
78325;DHT22;67584;51.400;6.692;2024-01-06T10:06:16;3.70;92.20
78325;DHT22;67584;51.400;6.692;2024-01-06T10:08:52;3.50;92.20
78325;DHT22;67584;51.400;6.692;2024-01-06T10:11:19;3.50;92.20
78325;DHT22;67584;51.400;6.692;2024-01-06T10:13:49;3.70;92.20
78325;DHT22;67584;51.400;6.692;2024-01-06T10:16:16;3.60;92.20
78325;DHT22;67584;51.400;6.692;2024-01-06T10:18:41;3.70;92.20
78325;DHT22;67584;51.400;6.692;2024-01-06T10:21:07;3.60;92.20
78325;DHT22;67584;51.400;6.692;2024-01-06T10:23:33;3.60;92.20
78325;DHT22;67584;51.400;6.692;2024-01-06T10:25:59;3.30;92.20
78325;DHT22;67584;51.400;6.692;2024-01-06T10:28:25;3.70;92.20
78325;DHT22;67584;51.400;6.692;2024-01-06T10:30:55;3.60;92.20
78325;DHT22;67584;51.400;6.692;2024-01-06T10:33:22;3.70;92.20
78325;DHT22;67584;51.400;6.692;2024-01-06T10:35:49;3.70;92.20
78325;DHT22;67584;51.400;6.692;2024-01-06T10:38:15;3.50;92.20
78325;DHT22;67584;51.400;6.692;2024-01-06T10:41:00;3.30;92.20
78325;DHT22;67584;51.400;6.692;2024-01-06T10:43:27;3.50;92.20
78325;DHT22;67584;51.400;6.692;2024-01-06T10:45:56;3.40;92.20
78325;DHT22;67584;51.400;6.692;2024-01-06T10:48:25;3.50;92.20
78325;DHT22;67584;51.400;6.692;2024-01-06T10:50:52;3.50;92.20
78325;DHT22;67584;51.400;6.692;2024-01-06T10:53:20;3.30;92.20
78325;DHT22;67584;51.400;6.692;2024-01-06T10:55:49;3.50;92.20
78325;DHT22;67584;51.400;6.692;2024-01-06T10:58:17;3.50;92.20
78325;DHT22;67584;51.400;6.692;2024-01-06T11:00:42;3.50;92.20
78325;DHT22;67584;51.400;6.692;2024-01-06T11:03:09;3.20;92.20
78325;DHT22;67584;51.400;6.692;2024-01-06T11:05:36;3.40;92.20
78325;DHT22;67584;51.400;6.692;2024-01-06T11:08:04;3.30;92.20
78325;DHT22;67584;51.400;6.692;2024-01-06T11:10:31;3.30;92.20
78325;DHT22;67584;51.400;6.692;2024-01-06T11:13:12;3.00;92.20
78325;DHT22;67584;51.400;6.692;2024-01-06T11:15:40;3.30;92.20
78325;DHT22;67584;51.400;6.692;2024-01-06T11:18:06;3.30;92.20
78325;DHT22;67584;51.400;6.692;2024-01-06T11:20:32;3.20;92.20
78325;DHT22;67584;51.400;6.692;2024-01-06T11:23:18;3.40;92.20
78325;DHT22;67584;51.400;6.692;2024-01-06T11:25:46;3.40;92.20
78325;DHT22;67584;51.400;6.692;2024-01-06T11:28:12;3.20;92.20
78325;DHT22;67584;51.400;6.692;2024-01-06T11:30:38;3.30;92.20
78325;DHT22;67584;51.400;6.692;2024-01-06T11:33:05;3.30;92.20
78325;DHT22;67584;51.400;6.692;2024-01-06T11:35:30;3.50;92.20
78325;DHT22;67584;51.400;6.692;2024-01-06T11:38:02;3.30;92.20
78325;DHT22;67584;51.400;6.692;2024-01-06T11:40:34;3.40;92.20
78325;DHT22;67584;51.400;6.692;2024-01-06T11:45:33;3.60;92.20
78325;DHT22;67584;51.400;6.692;2024-01-06T11:48:06;3.50;92.20
78325;DHT22;67584;51.400;6.692;2024-01-06T11:50:34;3.80;92.20
78325;DHT22;67584;51.400;6.692;2024-01-06T11:53:01;3.60;92.20
78325;DHT22;67584;51.400;6.692;2024-01-06T11:55:27;3.40;92.20
78325;DHT22;67584;51.400;6.692;2024-01-06T11:58:03;3.40;92.20
78325;DHT22;67584;51.400;6.692;2024-01-06T12:00:32;3.20;92.20
78325;DHT22;67584;51.400;6.692;2024-01-06T12:02:59;3.30;92.20
78325;DHT22;67584;51.400;6.692;2024-01-06T12:05:25;3.30;92.20
78325;DHT22;67584;51.400;6.692;2024-01-06T12:08:00;3.30;92.20
78325;DHT22;67584;51.400;6.692;2024-01-06T12:10:28;3.40;92.20
78325;DHT22;67584;51.400;6.692;2024-01-06T12:13:02;3.30;92.20
78325;DHT22;67584;51.400;6.692;2024-01-06T12:15:30;3.20;92.20
78325;DHT22;67584;51.400;6.692;2024-01-06T12:17:56;3.10;92.20
78325;DHT22;67584;51.400;6.692;2024-01-06T12:20:22;3.20;92.20
78325;DHT22;67584;51.400;6.692;2024-01-06T12:22:51;3.30;92.20
78325;DHT22;67584;51.400;6.692;2024-01-06T12:25:17;3.20;92.20
78325;DHT22;67584;51.400;6.692;2024-01-06T12:27:44;3.30;92.20
78325;DHT22;67584;51.400;6.692;2024-01-06T12:30:14;3.10;92.20
78325;DHT22;67584;51.400;6.692;2024-01-06T12:32:46;3.10;92.20
78325;DHT22;67584;51.400;6.692;2024-01-06T12:35:15;3.20;92.20
78325;DHT22;67584;51.400;6.692;2024-01-06T12:37:43;3.10;92.20
78325;DHT22;67584;51.400;6.692;2024-01-06T12:40:13;3.20;92.20
78325;DHT22;67584;51.400;6.692;2024-01-06T12:42:40;3.10;92.20
78325;DHT22;67584;51.400;6.692;2024-01-06T12:45:06;3.20;92.20
78325;DHT22;67584;51.400;6.692;2024-01-06T12:47:33;3.20;92.20
78325;DHT22;67584;51.400;6.692;2024-01-06T12:49:59;3.20;92.20
78325;DHT22;67584;51.400;6.692;2024-01-06T12:52:24;3.00;92.20
78325;DHT22;67584;51.400;6.692;2024-01-06T12:54:50;2.90;92.20
78325;DHT22;67584;51.400;6.692;2024-01-06T12:57:16;2.90;92.20
78325;DHT22;67584;51.400;6.692;2024-01-06T12:59:42;3.00;92.20
78325;DHT22;67584;51.400;6.692;2024-01-06T13:02:11;3.20;92.20
78325;DHT22;67584;51.400;6.692;2024-01-06T13:04:36;2.90;92.20
78325;DHT22;67584;51.400;6.692;2024-01-06T13:07:02;3.30;92.20
78325;DHT22;67584;51.400;6.692;2024-01-06T13:09:28;3.00;92.20
78325;DHT22;67584;51.400;6.692;2024-01-06T13:11:54;3.10;92.20
78325;DHT22;67584;51.400;6.692;2024-01-06T13:14:28;2.80;92.20
78325;DHT22;67584;51.400;6.692;2024-01-06T13:16:55;2.80;92.20
78325;DHT22;67584;51.400;6.692;2024-01-06T13:19:21;3.10;92.20
78325;DHT22;67584;51.400;6.692;2024-01-06T13:21:47;3.00;92.20
78325;DHT22;67584;51.400;6.692;2024-01-06T13:24:12;2.80;92.20
78325;DHT22;67584;51.400;6.692;2024-01-06T13:26:38;2.80;92.20
78325;DHT22;67584;51.400;6.692;2024-01-06T13:29:04;2.80;92.20
78325;DHT22;67584;51.400;6.692;2024-01-06T13:31:30;3.00;92.20
78325;DHT22;67584;51.400;6.692;2024-01-06T13:33:56;3.00;92.20
78325;DHT22;67584;51.400;6.692;2024-01-06T13:36:22;3.00;92.20
78325;DHT22;67584;51.400;6.692;2024-01-06T13:38:48;3.00;92.20
78325;DHT22;67584;51.400;6.692;2024-01-06T13:41:14;2.80;92.20
78325;DHT22;67584;51.400;6.692;2024-01-06T13:43:42;2.90;92.20
78325;DHT22;67584;51.400;6.692;2024-01-06T13:46:10;2.90;92.20
78325;DHT22;67584;51.400;6.692;2024-01-06T13:48:35;2.90;92.20
78325;DHT22;67584;51.400;6.692;2024-01-06T13:51:01;2.70;92.20
78325;DHT22;67584;51.400;6.692;2024-01-06T13:53:27;2.90;92.20
78325;DHT22;67584;51.400;6.692;2024-01-06T13:55:53;3.00;92.20
78325;DHT22;67584;51.400;6.692;2024-01-06T13:58:18;2.60;92.20
78325;DHT22;67584;51.400;6.692;2024-01-06T14:00:44;2.80;92.20
78325;DHT22;67584;51.400;6.692;2024-01-06T14:03:10;3.00;92.20
78325;DHT22;67584;51.400;6.692;2024-01-06T14:05:36;2.90;92.20
78325;DHT22;67584;51.400;6.692;2024-01-06T14:08:03;2.90;92.20
78325;DHT22;67584;51.400;6.692;2024-01-06T14:10:28;2.60;92.20
78325;DHT22;67584;51.400;6.692;2024-01-06T14:12:56;2.70;92.20
78325;DHT22;67584;51.400;6.692;2024-01-06T14:15:24;2.80;92.20
78325;DHT22;67584;51.400;6.692;2024-01-06T14:17:52;2.70;92.20
78325;DHT22;67584;51.400;6.692;2024-01-06T14:20:18;2.70;92.20
78325;DHT22;67584;51.400;6.692;2024-01-06T14:22:45;2.50;92.20
78325;DHT22;67584;51.400;6.692;2024-01-06T14:25:12;2.80;92.20
78325;DHT22;67584;51.400;6.692;2024-01-06T14:27:37;2.50;92.20
78325;DHT22;67584;51.400;6.692;2024-01-06T14:30:03;2.70;92.20
78325;DHT22;67584;51.400;6.692;2024-01-06T14:32:29;2.70;92.20
78325;DHT22;67584;51.400;6.692;2024-01-06T14:34:55;2.50;92.20
78325;DHT22;67584;51.400;6.692;2024-01-06T14:37:21;2.50;92.20
78325;DHT22;67584;51.400;6.692;2024-01-06T14:39:47;2.40;92.20
78325;DHT22;67584;51.400;6.692;2024-01-06T14:42:12;2.50;92.20
78325;DHT22;67584;51.400;6.692;2024-01-06T14:44:38;2.30;92.20
78325;DHT22;67584;51.400;6.692;2024-01-06T14:47:04;2.50;92.20
78325;DHT22;67584;51.400;6.692;2024-01-06T14:49:30;2.40;92.20
78325;DHT22;67584;51.400;6.692;2024-01-06T14:51:56;2.40;92.20
78325;DHT22;67584;51.400;6.692;2024-01-06T14:54:21;2.40;92.20
78325;DHT22;67584;51.400;6.692;2024-01-06T14:56:47;2.60;92.20
78325;DHT22;67584;51.400;6.692;2024-01-06T14:59:13;2.30;92.20
78325;DHT22;67584;51.400;6.692;2024-01-06T15:01:42;2.30;92.20
78325;DHT22;67584;51.400;6.692;2024-01-06T15:04:09;2.40;92.20
78325;DHT22;67584;51.400;6.692;2024-01-06T15:06:34;2.40;92.20
78325;DHT22;67584;51.400;6.692;2024-01-06T15:09:00;2.30;92.20
78325;DHT22;67584;51.400;6.692;2024-01-06T15:11:26;2.20;92.20
78325;DHT22;67584;51.400;6.692;2024-01-06T15:13:52;2.30;92.20
78325;DHT22;67584;51.400;6.692;2024-01-06T15:16:17;2.40;92.20
78325;DHT22;67584;51.400;6.692;2024-01-06T15:18:43;2.20;92.20
78325;DHT22;67584;51.400;6.692;2024-01-06T15:21:09;2.20;92.20
78325;DHT22;67584;51.400;6.692;2024-01-06T15:23:34;2.30;92.20
78325;DHT22;67584;51.400;6.692;2024-01-06T15:26:00;2.30;92.20
78325;DHT22;67584;51.400;6.692;2024-01-06T15:28:29;2.30;92.20
78325;DHT22;67584;51.400;6.692;2024-01-06T15:30:54;2.30;92.10
78325;DHT22;67584;51.400;6.692;2024-01-06T15:33:20;2.40;92.20
78325;DHT22;67584;51.400;6.692;2024-01-06T15:35:46;2.20;92.10
78325;DHT22;67584;51.400;6.692;2024-01-06T15:38:17;2.30;92.20
78325;DHT22;67584;51.400;6.692;2024-01-06T15:40:52;2.20;92.10
78325;DHT22;67584;51.400;6.692;2024-01-06T15:43:20;2.30;92.10